createdAt,value
2017-04-15T00:00:22.291Z,84.40
2017-04-15T00:01:21.329Z,84.40
2017-04-15T00:02:20.212Z,84.50
2017-04-15T00:03:19.100Z,84.50
2017-04-15T00:04:18.026Z,84.50
2017-04-15T00:05:16.944Z,84.60
2017-04-15T00:06:15.856Z,84.60
2017-04-15T00:07:14.748Z,84.70
2017-04-15T00:08:13.635Z,84.40
2017-04-15T00:09:13.069Z,84.40
2017-04-15T00:10:11.978Z,84.20
2017-04-15T00:11:10.911Z,84.30
2017-04-15T00:12:09.815Z,84.30
2017-04-15T00:13:08.689Z,84.30
2017-04-15T00:14:07.576Z,84.20
2017-04-15T00:15:06.506Z,84.30
2017-04-15T00:16:06.517Z,84.10
2017-04-15T00:17:05.459Z,83.90
2017-04-15T00:18:04.363Z,84.10
2017-04-15T00:19:03.276Z,84.20
2017-04-15T00:20:02.188Z,84.00
2017-04-15T00:21:01.088Z,84.10
2017-04-15T00:21:59.971Z,84.00
2017-04-15T00:22:58.901Z,83.80
2017-04-15T00:23:57.816Z,83.70
2017-04-15T00:24:56.696Z,83.70
2017-04-15T00:25:55.575Z,83.70
2017-04-15T00:26:54.463Z,83.20
2017-04-15T00:27:53.362Z,83.30
2017-04-15T00:28:52.272Z,83.40
2017-04-15T00:29:51.195Z,83.00
2017-04-15T00:30:50.105Z,83.10
2017-04-15T00:31:48.987Z,83.10
2017-04-15T00:32:47.867Z,82.80
2017-04-15T00:33:46.751Z,82.90
2017-04-15T00:34:45.690Z,82.70
2017-04-15T00:35:44.580Z,83.50
2017-04-15T00:36:43.475Z,83.00
2017-04-15T00:37:42.349Z,82.70
2017-04-15T00:38:41.265Z,82.50
2017-04-15T00:39:40.163Z,82.40
2017-04-15T00:40:39.056Z,82.40
2017-04-15T00:41:37.968Z,82.30
2017-04-15T00:42:36.868Z,82.20
2017-04-15T00:43:35.779Z,81.90
2017-04-15T00:44:34.664Z,81.60
2017-04-15T00:45:33.539Z,81.50
2017-04-15T00:46:32.451Z,81.50
2017-04-15T00:47:31.348Z,81.70
2017-04-15T00:48:30.235Z,81.70
2017-04-15T00:49:29.120Z,81.70
2017-04-15T00:50:28.033Z,81.50
2017-04-15T00:51:26.937Z,81.30
2017-04-15T00:52:25.863Z,80.90
2017-04-15T00:53:24.840Z,81.30
2017-04-15T00:54:23.735Z,80.70
2017-04-15T00:55:22.627Z,80.60
2017-04-15T00:56:21.507Z,80.70
2017-04-15T00:57:20.388Z,80.50
2017-04-15T00:58:19.316Z,80.30
2017-04-15T00:59:18.228Z,80.00
2017-04-15T01:00:17.123Z,79.60
2017-04-15T01:01:16.032Z,79.50
2017-04-15T01:02:14.925Z,79.80
2017-04-15T01:03:13.799Z,80.20
2017-04-15T01:04:12.727Z,79.80
2017-04-15T01:05:11.635Z,79.90
2017-04-15T01:06:10.557Z,79.50
2017-04-15T01:07:09.463Z,79.30
2017-04-15T01:08:08.344Z,79.60
2017-04-15T01:09:07.229Z,80.30
2017-04-15T01:10:06.146Z,80.80
2017-04-15T01:11:05.036Z,79.90
2017-04-15T01:12:03.943Z,79.80
2017-04-15T01:13:02.857Z,79.60
2017-04-15T01:14:01.759Z,79.30
2017-04-15T01:15:00.659Z,80.30
2017-04-15T01:15:59.611Z,79.60
2017-04-15T01:16:58.517Z,79.20
2017-04-15T01:17:57.460Z,79.70
2017-04-15T01:18:56.340Z,79.70
2017-04-15T01:19:55.222Z,79.60
2017-04-15T01:20:54.094Z,79.50
2017-04-15T01:21:53.007Z,79.10
2017-04-15T01:22:51.906Z,79.10
2017-04-15T01:23:50.804Z,79.20
2017-04-15T01:24:49.680Z,79.40
2017-04-15T01:25:48.565Z,79.40
2017-04-15T01:26:47.467Z,79.10
2017-04-15T01:27:46.394Z,79.90
2017-04-15T01:28:45.299Z,79.00
2017-04-15T01:29:44.199Z,78.80
2017-04-15T01:30:43.095Z,79.10
2017-04-15T01:31:42.031Z,79.00
2017-04-15T01:32:41.087Z,79.00
2017-04-15T01:33:40.001Z,79.10
2017-04-15T01:34:38.877Z,78.70
2017-04-15T01:35:37.772Z,78.50
2017-04-15T01:36:36.675Z,78.50
2017-04-15T01:37:35.554Z,78.40
2017-04-15T01:38:34.571Z,78.40
2017-04-15T01:39:33.491Z,78.30
2017-04-15T01:40:32.383Z,78.40
2017-04-15T01:41:31.284Z,78.70
2017-04-15T01:42:30.165Z,78.90
2017-04-15T01:43:29.057Z,79.00
2017-04-15T01:44:27.939Z,79.20
2017-04-15T01:45:26.857Z,79.20
2017-04-15T01:46:25.748Z,79.00
2017-04-15T01:47:24.628Z,78.90
2017-04-15T01:48:23.527Z,78.70
2017-04-15T01:49:22.417Z,79.50
2017-04-15T01:50:21.306Z,78.70
2017-04-15T01:51:20.240Z,78.40
2017-04-15T01:52:19.155Z,78.10
2017-04-15T01:53:18.058Z,78.20
2017-04-15T01:54:16.944Z,77.70
2017-04-15T01:55:15.833Z,77.50
2017-04-15T01:56:14.711Z,77.70
2017-04-15T01:57:13.611Z,77.80
2017-04-15T01:58:12.500Z,77.70
2017-04-15T01:59:11.384Z,77.40
2017-04-15T02:00:10.289Z,77.10
2017-04-15T02:01:09.165Z,77.50
2017-04-15T02:02:08.037Z,77.60
2017-04-15T02:03:07.028Z,77.70
2017-04-15T02:04:05.930Z,77.50
2017-04-15T02:05:04.848Z,77.50
2017-04-15T02:06:03.782Z,77.50
2017-04-15T02:07:02.673Z,77.30
2017-04-15T02:08:01.567Z,76.90
2017-04-15T02:09:00.483Z,76.70
2017-04-15T02:09:59.376Z,76.60
2017-04-15T02:10:58.255Z,76.60
2017-04-15T02:11:57.180Z,76.70
2017-04-15T02:12:56.075Z,76.50
2017-04-15T02:13:55.014Z,76.10
2017-04-15T02:14:53.904Z,76.10
2017-04-15T02:15:52.811Z,76.30
2017-04-15T02:16:51.720Z,76.10
2017-04-15T02:17:50.638Z,75.90
2017-04-15T02:18:49.537Z,75.80
2017-04-15T02:19:48.431Z,76.20
2017-04-15T02:20:47.324Z,75.90
2017-04-15T02:21:46.214Z,76.60
2017-04-15T02:22:45.099Z,76.90
2017-04-15T02:23:43.968Z,76.60
2017-04-15T02:24:42.859Z,76.00
2017-04-15T02:25:41.743Z,75.60
2017-04-15T02:26:40.656Z,75.90
2017-04-15T02:27:39.621Z,76.50
2017-04-15T02:28:38.507Z,76.60
2017-04-15T02:29:37.376Z,76.60
2017-04-15T02:30:36.311Z,76.50
2017-04-15T02:31:35.227Z,76.20
2017-04-15T02:32:34.164Z,76.40
2017-04-15T02:33:33.054Z,76.20
2017-04-15T02:34:31.992Z,76.40
2017-04-15T02:35:30.856Z,76.50
2017-04-15T02:36:29.759Z,76.60
2017-04-15T02:37:28.661Z,77.10
2017-04-15T02:38:27.572Z,76.60
2017-04-15T02:39:26.456Z,76.60
2017-04-15T02:40:25.335Z,76.50
2017-04-15T02:41:24.215Z,76.60
2017-04-15T02:42:23.100Z,77.00
2017-04-15T02:43:22.011Z,76.70
2017-04-15T02:44:20.957Z,76.20
2017-04-15T02:45:19.839Z,76.70
2017-04-15T02:46:18.760Z,76.60
2017-04-15T02:47:17.646Z,76.80
2017-04-15T02:48:16.542Z,77.10
2017-04-15T02:49:15.472Z,77.70
2017-04-15T02:50:14.399Z,77.70
2017-04-15T02:51:13.275Z,78.70
2017-04-15T02:52:12.161Z,79.20
2017-04-15T02:53:11.039Z,79.90
2017-04-15T02:54:09.937Z,79.40
2017-04-15T02:55:08.837Z,79.20
2017-04-15T02:56:07.761Z,79.40
2017-04-15T02:57:06.652Z,80.00
2017-04-15T02:58:05.674Z,80.90
2017-04-15T02:59:04.608Z,79.40
2017-04-15T03:00:03.529Z,79.70
2017-04-15T03:01:02.412Z,80.60
2017-04-15T03:02:01.316Z,80.40
2017-04-15T03:03:00.203Z,80.20
2017-04-15T03:03:59.163Z,79.90
2017-04-15T03:04:58.064Z,81.20
2017-04-15T03:05:56.976Z,81.10
2017-04-15T03:06:55.875Z,81.40
2017-04-15T03:07:54.773Z,81.40
2017-04-15T03:08:53.659Z,81.50
2017-04-15T03:09:52.568Z,82.30
2017-04-15T03:10:51.451Z,82.80
2017-04-15T03:11:50.404Z,82.80
2017-04-15T03:12:49.287Z,83.20
2017-04-15T03:13:48.230Z,83.10
2017-04-15T03:14:47.132Z,83.30
2017-04-15T03:15:46.031Z,83.50
2017-04-15T03:16:44.929Z,83.80
2017-04-15T03:17:43.836Z,83.70
2017-04-15T03:18:42.731Z,84.20
2017-04-15T03:19:41.672Z,84.80
2017-04-15T03:20:40.595Z,85.30
2017-04-15T03:21:39.504Z,85.80
2017-04-15T03:22:38.391Z,86.30
2017-04-15T03:23:37.271Z,86.40
2017-04-15T03:24:36.155Z,86.90
2017-04-15T03:25:35.095Z,87.30
2017-04-15T03:26:33.974Z,87.50
2017-04-15T03:27:32.905Z,87.40
2017-04-15T03:28:31.824Z,87.70
2017-04-15T03:29:30.715Z,87.90
2017-04-15T03:30:29.603Z,87.50
2017-04-15T03:31:28.543Z,87.30
2017-04-15T03:32:27.448Z,87.70
2017-04-15T03:33:26.341Z,87.80
2017-04-15T03:34:25.245Z,87.90
2017-04-15T03:35:24.139Z,88.20
2017-04-15T03:36:23.035Z,88.70
2017-04-15T03:37:21.975Z,87.70
2017-04-15T03:38:20.919Z,87.60
2017-04-15T03:39:19.847Z,88.10
2017-04-15T03:40:18.756Z,87.80
2017-04-15T03:41:17.649Z,90.10
2017-04-15T03:42:17.118Z,89.00
2017-04-15T03:43:16.056Z,89.20
2017-04-15T03:44:14.993Z,88.80
2017-04-15T03:45:13.895Z,89.00
2017-04-15T03:46:12.803Z,89.20
2017-04-15T03:47:11.732Z,89.10
2017-04-15T03:48:10.614Z,89.00
2017-04-15T03:49:09.519Z,89.20
2017-04-15T03:50:08.483Z,89.30
2017-04-15T03:51:07.380Z,89.50
2017-04-15T03:52:06.314Z,89.50
2017-04-15T03:53:05.220Z,89.80
2017-04-15T03:54:04.111Z,90.00
2017-04-15T03:55:03.039Z,90.30
2017-04-15T03:56:01.935Z,90.10
2017-04-15T03:57:00.828Z,90.30
2017-04-15T03:57:59.703Z,90.40
2017-04-15T03:58:58.579Z,90.30
2017-04-15T03:59:57.481Z,90.90
2017-04-15T04:00:56.393Z,90.60
2017-04-15T04:01:55.339Z,90.50
2017-04-15T04:02:54.278Z,90.60
2017-04-15T04:03:53.168Z,90.60
2017-04-15T04:04:52.083Z,90.70
2017-04-15T04:05:50.971Z,90.80
2017-04-15T04:06:49.930Z,90.90
2017-04-15T04:07:48.827Z,91.00
2017-04-15T04:08:47.740Z,90.90
2017-04-15T04:09:46.646Z,90.90
2017-04-15T04:10:45.535Z,91.10
2017-04-15T04:11:44.443Z,91.20
2017-04-15T04:12:43.412Z,91.10
2017-04-15T04:13:42.349Z,91.30
2017-04-15T04:14:41.278Z,91.20
2017-04-15T04:15:40.163Z,91.20
2017-04-15T04:16:42.555Z,91.30
2017-04-15T04:17:41.500Z,91.40
2017-04-15T04:18:40.412Z,91.30
2017-04-15T04:19:39.339Z,91.50
2017-04-15T04:20:39.223Z,91.50
2017-04-15T04:21:38.098Z,91.40
2017-04-15T04:22:36.979Z,91.40
2017-04-15T04:23:35.854Z,91.40
2017-04-15T04:24:34.879Z,91.60
2017-04-15T04:25:33.795Z,91.50
2017-04-15T04:26:32.725Z,91.40
2017-04-15T04:27:31.591Z,91.40
2017-04-15T04:28:30.480Z,91.50
2017-04-15T04:29:29.368Z,91.50
2017-04-15T04:30:28.292Z,91.60
2017-04-15T04:31:27.179Z,91.40
2017-04-15T04:32:26.065Z,91.60
2017-04-15T04:33:24.947Z,91.70
2017-04-15T04:34:23.835Z,91.70
2017-04-15T04:35:22.734Z,91.70
2017-04-15T04:36:21.675Z,91.70
2017-04-15T04:37:20.692Z,91.70
2017-04-15T04:38:19.570Z,91.80
2017-04-15T04:39:18.489Z,91.70
2017-04-15T04:40:17.391Z,91.90
2017-04-15T04:41:16.267Z,91.80
2017-04-15T04:42:15.181Z,91.70
2017-04-15T04:43:14.067Z,91.80
2017-04-15T04:44:12.955Z,91.80
2017-04-15T04:45:11.887Z,91.80
2017-04-15T04:46:10.775Z,91.80
2017-04-15T04:47:09.664Z,91.60
2017-04-15T04:48:08.586Z,91.60
2017-04-15T04:49:07.511Z,91.70
2017-04-15T04:50:06.391Z,91.60
2017-04-15T04:51:05.275Z,91.50
2017-04-15T04:52:04.146Z,91.50
2017-04-15T04:53:03.051Z,91.60
2017-04-15T04:54:02.280Z,91.70
2017-04-15T04:55:01.315Z,91.50
2017-04-15T04:56:00.203Z,91.60
2017-04-15T04:56:59.106Z,91.70
2017-04-15T04:57:57.987Z,91.60
2017-04-15T04:58:56.869Z,92.00
2017-04-15T04:59:55.764Z,91.50
2017-04-15T05:00:54.654Z,91.50
2017-04-15T05:01:53.566Z,91.60
2017-04-15T05:02:52.464Z,91.70
2017-04-15T05:03:51.361Z,91.60
2017-04-15T05:04:50.248Z,91.70
2017-04-15T05:05:49.152Z,91.70
2017-04-15T05:06:48.052Z,91.80
2017-04-15T05:07:46.952Z,91.80
2017-04-15T05:08:45.839Z,91.80
2017-04-15T05:09:44.711Z,91.90
2017-04-15T05:10:43.586Z,91.90
2017-04-15T05:11:42.483Z,91.90
2017-04-15T05:12:41.376Z,91.90
2017-04-15T05:13:40.264Z,91.90
2017-04-15T05:14:39.178Z,91.80
2017-04-15T05:15:38.126Z,91.90
2017-04-15T05:16:37.039Z,91.80
2017-04-15T05:17:35.947Z,91.80
2017-04-15T05:18:34.831Z,92.00
2017-04-15T05:19:33.779Z,92.00
2017-04-15T05:20:32.665Z,92.10
2017-04-15T05:21:31.541Z,92.10
2017-04-15T05:22:30.420Z,91.90
2017-04-15T05:23:29.344Z,92.00
2017-04-15T05:24:28.228Z,91.90
2017-04-15T05:25:27.182Z,92.00
2017-04-15T05:26:26.079Z,92.10
2017-04-15T05:27:24.971Z,92.20
2017-04-15T05:28:23.859Z,92.20
2017-04-15T05:29:22.768Z,92.20
2017-04-15T05:30:21.648Z,92.20
2017-04-15T05:31:20.528Z,92.30
2017-04-15T05:32:19.400Z,92.40
2017-04-15T05:33:18.316Z,92.40
2017-04-15T05:34:17.191Z,92.50
2017-04-15T05:35:16.104Z,92.60
2017-04-15T05:36:15.013Z,92.70
2017-04-15T05:37:13.906Z,92.70
2017-04-15T05:38:12.804Z,92.60
2017-04-15T05:39:11.675Z,92.50
2017-04-15T05:40:10.543Z,92.60
2017-04-15T05:41:09.459Z,92.60
2017-04-15T05:42:08.365Z,92.50
2017-04-15T05:43:07.283Z,92.50
2017-04-15T05:44:06.171Z,92.40
2017-04-15T05:45:05.047Z,92.50
2017-04-15T05:46:03.952Z,92.60
2017-04-15T05:47:02.859Z,92.70
2017-04-15T05:48:01.760Z,92.70
2017-04-15T05:49:00.663Z,92.60
2017-04-15T05:49:59.564Z,92.70
2017-04-15T05:50:58.439Z,92.80
2017-04-15T05:51:57.313Z,92.80
2017-04-15T05:52:56.235Z,92.90
2017-04-15T05:53:55.116Z,92.70
2017-04-15T05:54:54.015Z,92.50
2017-04-15T05:55:52.895Z,92.60
2017-04-15T05:56:51.799Z,92.60
2017-04-15T05:57:50.686Z,92.60
2017-04-15T05:58:49.608Z,92.60
2017-04-15T05:59:48.517Z,92.80
2017-04-15T06:00:47.407Z,92.70
2017-04-15T06:01:46.298Z,92.90
2017-04-15T06:02:45.167Z,92.90
2017-04-15T06:03:44.046Z,92.90
2017-04-15T06:04:42.972Z,93.00
2017-04-15T06:05:41.859Z,93.00
2017-04-15T06:06:40.766Z,92.90
2017-04-15T06:07:39.668Z,93.20
2017-04-15T06:08:38.545Z,92.90
2017-04-15T06:09:37.431Z,92.80
2017-04-15T06:10:36.347Z,92.70
2017-04-15T06:11:35.257Z,92.90
2017-04-15T06:12:34.164Z,93.00
2017-04-15T06:13:33.052Z,92.90
2017-04-15T06:14:31.944Z,93.00
2017-04-15T06:15:30.824Z,92.90
2017-04-15T06:16:29.733Z,92.70
2017-04-15T06:17:28.623Z,92.90
2017-04-15T06:18:27.503Z,92.70
2017-04-15T06:19:26.434Z,92.80
2017-04-15T06:20:25.343Z,92.70
2017-04-15T06:21:24.227Z,92.70
2017-04-15T06:22:23.189Z,92.70
2017-04-15T06:23:22.085Z,92.60
2017-04-15T06:24:21.043Z,92.60
2017-04-15T06:25:19.952Z,92.70
2017-04-15T06:26:18.848Z,92.60
2017-04-15T06:27:17.727Z,92.50
2017-04-15T06:28:16.662Z,92.50
2017-04-15T06:29:15.556Z,92.50
2017-04-15T06:30:14.460Z,92.30
2017-04-15T06:31:13.387Z,92.20
2017-04-15T06:32:12.262Z,92.30
2017-04-15T06:33:11.152Z,92.30
2017-04-15T06:34:10.065Z,92.30
2017-04-15T06:35:08.963Z,92.10
2017-04-15T06:36:07.847Z,92.20
2017-04-15T06:37:06.739Z,92.20
2017-04-15T06:38:05.653Z,92.20
2017-04-15T06:39:05.356Z,92.00
2017-04-15T06:40:04.299Z,92.10
2017-04-15T06:41:03.188Z,92.10
2017-04-15T06:42:02.108Z,92.10
2017-04-15T06:43:01.000Z,92.00
2017-04-15T06:43:59.884Z,91.80
2017-04-15T06:44:58.782Z,91.70
2017-04-15T06:45:57.730Z,91.80
2017-04-15T06:46:56.715Z,91.50
2017-04-15T06:47:55.593Z,91.70
2017-04-15T06:48:54.487Z,91.70
2017-04-15T06:49:53.379Z,91.70
2017-04-15T06:50:52.307Z,91.60
2017-04-15T06:51:51.251Z,91.30
2017-04-15T06:52:50.152Z,91.40
2017-04-15T06:53:49.032Z,91.50
2017-04-15T06:54:47.909Z,91.40
2017-04-15T06:55:46.782Z,91.40
2017-04-15T06:56:45.827Z,91.10
2017-04-15T06:57:44.774Z,91.00
2017-04-15T06:58:43.659Z,91.40
2017-04-15T06:59:42.548Z,90.80
2017-04-15T07:00:41.471Z,91.10
2017-04-15T07:01:40.382Z,90.80
2017-04-15T07:02:45.400Z,91.00
2017-04-15T07:03:44.616Z,90.80
2017-04-15T07:04:43.480Z,90.80
2017-04-15T07:05:42.375Z,90.70
2017-04-15T07:06:41.256Z,90.70
2017-04-15T07:07:40.148Z,90.80
2017-04-15T07:08:39.053Z,90.70
2017-04-15T07:09:37.952Z,90.50
2017-04-15T07:10:36.875Z,90.60
2017-04-15T07:11:35.768Z,90.40
2017-04-15T07:12:34.643Z,90.60
2017-04-15T07:13:33.515Z,90.60
2017-04-15T07:14:32.423Z,90.80
2017-04-15T07:15:31.522Z,90.80
2017-04-15T07:16:30.436Z,90.70
2017-04-15T07:17:29.359Z,90.80
2017-04-15T07:18:28.336Z,90.60
2017-04-15T07:19:27.251Z,90.30
2017-04-15T07:20:26.207Z,90.50
2017-04-15T07:21:25.091Z,90.70
2017-04-15T07:22:23.971Z,90.80
2017-04-15T07:23:23.129Z,90.80
2017-04-15T07:24:22.015Z,90.90
2017-04-15T07:25:20.895Z,90.80
2017-04-15T07:26:19.795Z,91.00
2017-04-15T07:27:18.687Z,90.70
2017-04-15T07:28:17.587Z,90.90
2017-04-15T07:29:16.488Z,90.90
2017-04-15T07:30:15.399Z,90.90
2017-04-15T07:31:14.304Z,91.20
2017-04-15T07:32:13.267Z,91.00
2017-04-15T07:33:12.172Z,91.00
2017-04-15T07:34:11.052Z,91.30
2017-04-15T07:35:09.950Z,91.40
2017-04-15T07:36:08.881Z,91.40
2017-04-15T07:37:07.787Z,91.50
2017-04-15T07:38:06.718Z,91.40
2017-04-15T07:39:05.642Z,91.40
2017-04-15T07:40:04.543Z,91.50
2017-04-15T07:41:03.428Z,91.60
2017-04-15T07:42:02.356Z,91.60
2017-04-15T07:43:01.286Z,92.00
2017-04-15T07:44:00.810Z,91.80
2017-04-15T07:44:59.696Z,91.70
2017-04-15T07:45:58.594Z,91.60
2017-04-15T07:46:57.505Z,91.80
2017-04-15T07:47:56.403Z,91.60
2017-04-15T07:48:55.297Z,91.60
2017-04-15T07:49:54.227Z,91.70
2017-04-15T07:50:53.132Z,91.90
2017-04-15T07:51:52.007Z,91.90
2017-04-15T07:52:50.896Z,91.70
2017-04-15T07:53:49.790Z,91.20
2017-04-15T07:54:48.712Z,91.50
2017-04-15T07:55:47.596Z,91.30
2017-04-15T07:56:46.473Z,91.10
2017-04-15T07:57:45.407Z,91.30
2017-04-15T07:58:44.299Z,91.20
2017-04-15T07:59:43.207Z,91.50
2017-04-15T08:00:42.129Z,91.20
2017-04-15T08:01:41.032Z,91.10
2017-04-15T08:02:39.978Z,90.90
2017-04-15T08:03:38.912Z,91.00
2017-04-15T08:04:37.835Z,91.10
2017-04-15T08:05:36.795Z,90.80
2017-04-15T08:06:35.836Z,90.90
2017-04-15T08:07:34.812Z,90.90
2017-04-15T08:08:33.738Z,90.90
2017-04-15T08:09:32.715Z,90.90
2017-04-15T08:10:31.623Z,90.70
2017-04-15T08:11:30.536Z,90.70
2017-04-15T08:12:29.456Z,90.80
2017-04-15T08:13:28.340Z,90.60
2017-04-15T08:14:27.268Z,90.90
2017-04-15T08:15:26.172Z,91.10
2017-04-15T08:16:25.078Z,90.90
2017-04-15T08:17:23.972Z,90.90
2017-04-15T08:18:23.004Z,90.80
2017-04-15T08:19:21.946Z,91.00
2017-04-15T08:20:20.847Z,91.30
2017-04-15T08:21:19.725Z,91.30
2017-04-15T08:22:18.632Z,91.40
2017-04-15T08:23:17.503Z,91.50
2017-04-15T08:24:16.475Z,91.60
2017-04-15T08:25:15.368Z,91.70
2017-04-15T08:26:14.247Z,92.00
2017-04-15T08:27:13.163Z,91.90
2017-04-15T08:28:12.045Z,91.60
2017-04-15T08:29:10.968Z,91.80
2017-04-15T08:30:09.922Z,92.00
2017-04-15T08:31:08.830Z,92.60
2017-04-15T08:32:07.768Z,91.90
2017-04-15T08:33:06.695Z,91.70
2017-04-15T08:34:05.623Z,91.30
2017-04-15T08:35:04.530Z,91.50
2017-04-15T08:36:03.427Z,91.30
2017-04-15T08:37:02.333Z,91.70
2017-04-15T08:38:01.247Z,91.70
2017-04-15T08:39:00.200Z,91.20
2017-04-15T08:39:59.103Z,91.30
2017-04-15T08:40:58.024Z,91.10
2017-04-15T08:41:56.923Z,91.00
2017-04-15T08:42:55.840Z,90.50
2017-04-15T08:43:54.724Z,90.60
2017-04-15T08:44:53.623Z,90.00
2017-04-15T08:45:52.508Z,90.30
2017-04-15T08:46:51.419Z,90.60
2017-04-15T08:47:50.324Z,90.60
2017-04-15T08:48:49.229Z,90.50
2017-04-15T08:49:48.112Z,90.10
2017-04-15T08:50:47.043Z,90.20
2017-04-15T08:51:45.923Z,90.30
2017-04-15T08:52:45.078Z,90.60
2017-04-15T08:53:43.981Z,90.30
2017-04-15T08:54:42.891Z,90.50
2017-04-15T08:55:41.779Z,90.30
2017-04-15T08:56:40.829Z,89.30
2017-04-15T08:57:39.751Z,90.00
2017-04-15T08:58:38.643Z,88.40
2017-04-15T08:59:37.533Z,89.50
2017-04-15T09:00:36.447Z,89.40
2017-04-15T09:01:35.357Z,88.20
2017-04-15T09:02:34.268Z,85.70
2017-04-15T09:03:33.159Z,85.20
2017-04-15T09:04:32.053Z,86.20
2017-04-15T09:05:30.973Z,85.60
2017-04-15T09:06:29.888Z,86.10
2017-04-15T09:07:28.799Z,85.50
2017-04-15T09:08:27.712Z,86.00
2017-04-15T09:09:26.584Z,86.50
2017-04-15T09:10:25.473Z,86.00
2017-04-15T09:11:24.375Z,85.70
2017-04-15T09:12:23.333Z,86.50
2017-04-15T09:13:22.232Z,86.60
2017-04-15T09:14:21.171Z,86.80
2017-04-15T09:15:20.049Z,86.30
2017-04-15T09:16:18.967Z,86.70
2017-04-15T09:17:17.864Z,86.80
2017-04-15T09:18:16.747Z,87.10
2017-04-15T09:19:15.683Z,87.20
2017-04-15T09:20:14.677Z,85.10
2017-04-15T09:21:13.548Z,85.70
2017-04-15T09:22:12.455Z,85.80
2017-04-15T09:23:11.390Z,85.50
2017-04-15T09:24:10.317Z,85.30
2017-04-15T09:25:09.260Z,85.30
2017-04-15T09:26:08.198Z,84.80
2017-04-15T09:27:07.087Z,84.20
2017-04-15T09:28:05.967Z,85.00
2017-04-15T09:29:04.848Z,83.80
2017-04-15T09:30:03.743Z,82.40
2017-04-15T09:31:02.680Z,82.40
2017-04-15T09:32:01.633Z,81.10
2017-04-15T09:33:00.523Z,80.80
2017-04-15T09:33:59.424Z,80.30
2017-04-15T09:34:58.330Z,78.70
2017-04-15T09:35:57.203Z,78.00
2017-04-15T09:36:56.087Z,78.50
2017-04-15T09:37:55.003Z,77.80
2017-04-15T09:38:53.955Z,75.80
2017-04-15T09:39:52.925Z,77.10
2017-04-15T09:40:51.815Z,77.00
2017-04-15T09:41:50.719Z,75.90
2017-04-15T09:42:49.621Z,75.90
2017-04-15T09:43:48.589Z,74.30
2017-04-15T09:44:47.535Z,74.20
2017-04-15T09:45:46.476Z,74.40
2017-04-15T09:46:45.388Z,75.00
2017-04-15T09:47:44.288Z,73.70
2017-04-15T09:48:43.167Z,73.30
2017-04-15T09:49:42.093Z,73.40
2017-04-15T09:50:41.017Z,73.10
2017-04-15T09:51:39.904Z,74.20
2017-04-15T09:52:38.795Z,73.70
2017-04-15T09:53:37.720Z,74.10
2017-04-15T09:54:36.625Z,74.40
2017-04-15T09:55:35.571Z,74.00
2017-04-15T09:56:34.475Z,73.30
2017-04-15T09:57:33.383Z,71.20
2017-04-15T09:58:32.451Z,70.80
2017-04-15T09:59:31.370Z,71.30
2017-04-15T10:00:30.303Z,71.90
2017-04-15T10:01:29.224Z,73.00
2017-04-15T10:02:28.204Z,72.80
2017-04-15T10:03:27.100Z,72.80
2017-04-15T10:04:26.150Z,71.40
2017-04-15T10:05:25.080Z,71.20
2017-04-15T10:06:24.008Z,71.30
2017-04-15T10:07:23.002Z,70.80
2017-04-15T10:08:21.888Z,71.80
2017-04-15T10:09:20.811Z,69.80
2017-04-15T10:10:19.723Z,69.30
2017-04-15T10:11:18.662Z,68.60
2017-04-15T10:12:17.555Z,68.00
2017-04-15T10:13:16.444Z,67.70
2017-04-15T10:14:15.321Z,67.90
2017-04-15T10:15:14.223Z,68.60
2017-04-15T10:16:13.139Z,68.00
2017-04-15T10:17:12.043Z,68.50
2017-04-15T10:18:11.000Z,67.90
2017-04-15T10:19:09.939Z,67.60
2017-04-15T10:20:08.853Z,69.70
2017-04-15T10:21:07.784Z,70.60
2017-04-15T10:22:06.678Z,74.10
2017-04-15T10:23:05.576Z,78.00
2017-04-15T10:24:04.479Z,82.20
2017-04-15T10:25:03.428Z,81.60
2017-04-15T10:26:02.312Z,82.10
2017-04-15T10:27:01.188Z,84.70
2017-04-15T10:28:00.134Z,82.50
2017-04-15T10:28:59.045Z,82.20
2017-04-15T10:29:57.959Z,83.80
2017-04-15T10:30:56.908Z,84.20
2017-04-15T10:31:55.872Z,81.80
2017-04-15T10:32:54.798Z,80.30
2017-04-15T10:33:53.700Z,82.40
2017-04-15T10:34:52.584Z,81.50
2017-04-15T10:35:51.468Z,80.80
2017-04-15T10:36:50.383Z,80.70
2017-04-15T10:37:49.282Z,81.20
2017-04-15T10:38:48.219Z,79.70
2017-04-15T10:39:47.134Z,79.80
2017-04-15T10:40:46.033Z,78.00
2017-04-15T10:41:44.940Z,77.60
2017-04-15T10:42:43.877Z,78.10
2017-04-15T10:43:42.835Z,80.20
2017-04-15T10:44:41.720Z,79.20
2017-04-15T10:45:40.800Z,80.10
2017-04-15T10:46:39.719Z,80.80
2017-04-15T10:47:38.667Z,81.40
2017-04-15T10:48:37.984Z,80.40
2017-04-15T10:49:36.893Z,79.30
2017-04-15T10:50:35.775Z,77.20
2017-04-15T10:51:34.754Z,78.30
2017-04-15T10:52:33.707Z,78.70
2017-04-15T10:53:32.701Z,79.70
2017-04-15T10:54:31.603Z,78.20
2017-04-15T10:55:30.530Z,77.80
2017-04-15T10:56:29.439Z,78.10
2017-04-15T10:57:28.364Z,76.20
2017-04-15T10:58:27.256Z,76.30
2017-04-15T10:59:26.167Z,76.60
2017-04-15T11:00:25.100Z,76.20
2017-04-15T11:01:24.004Z,75.10
2017-04-15T11:02:22.943Z,76.80
2017-04-15T11:03:21.860Z,76.20
2017-04-15T11:04:20.768Z,74.60
2017-04-15T11:05:19.675Z,75.00
2017-04-15T11:06:18.588Z,73.00
2017-04-15T11:07:17.535Z,73.00
2017-04-15T11:08:17.468Z,70.70
2017-04-15T11:09:16.371Z,70.50
2017-04-15T11:10:15.271Z,69.70
2017-04-15T11:11:14.203Z,70.00
2017-04-15T11:12:13.175Z,67.70
2017-04-15T11:13:12.140Z,66.40
2017-04-15T11:14:11.082Z,63.60
2017-04-15T11:15:10.007Z,61.30
2017-04-15T11:16:08.999Z,60.90
2017-04-15T11:17:07.890Z,60.50
2017-04-15T11:18:06.868Z,59.80
2017-04-15T11:19:05.783Z,58.80
2017-04-15T11:20:04.679Z,59.40
2017-04-15T11:21:03.559Z,57.90
2017-04-15T11:22:02.559Z,58.80
2017-04-15T11:23:01.492Z,58.40
2017-04-15T11:24:00.459Z,58.90
2017-04-15T11:26:30.388Z,58.20
2017-04-15T11:27:29.300Z,59.50
2017-04-15T11:28:28.196Z,58.80
2017-04-15T11:29:27.136Z,58.50
2017-04-15T11:30:26.043Z,58.50
2017-04-15T11:31:24.963Z,58.70
2017-04-15T11:32:23.903Z,59.10
2017-04-15T11:33:22.820Z,59.00
2017-04-15T11:34:21.760Z,58.60
2017-04-15T11:35:20.671Z,57.90
2017-04-15T11:36:19.625Z,57.90
2017-04-15T11:37:18.496Z,58.00
2017-04-15T11:38:17.394Z,57.90
2017-04-15T11:39:16.252Z,57.80
2017-04-15T11:40:15.150Z,56.80
2017-04-15T11:41:14.064Z,56.40
2017-04-15T11:42:12.971Z,57.00
2017-04-15T11:43:11.929Z,57.20
2017-04-15T11:44:10.812Z,57.40
2017-04-15T11:45:09.755Z,57.70
2017-04-15T11:46:08.651Z,57.40
2017-04-15T11:47:07.542Z,56.40
2017-04-15T11:48:06.476Z,56.00
2017-04-15T11:49:05.369Z,56.10
2017-04-15T11:50:04.300Z,56.30
2017-04-15T11:51:03.272Z,56.70
2017-04-15T11:52:02.175Z,56.10
2017-04-15T11:53:01.078Z,56.10
2017-04-15T11:54:00.000Z,55.80
2017-04-15T11:54:58.917Z,56.40
2017-04-15T11:55:57.807Z,55.30
2017-04-15T11:56:56.788Z,55.60
2017-04-15T11:57:55.665Z,55.00
2017-04-15T11:58:54.579Z,54.40
2017-04-15T11:59:53.464Z,54.90
2017-04-15T12:00:52.375Z,54.80
2017-04-15T12:01:51.276Z,53.10
2017-04-15T12:02:50.239Z,52.80
2017-04-15T12:03:49.172Z,53.40
2017-04-15T12:04:48.164Z,52.80
2017-04-15T12:05:47.062Z,52.50
2017-04-15T12:06:45.953Z,53.00
2017-04-15T12:07:44.832Z,52.40
2017-04-15T12:08:43.732Z,52.40
2017-04-15T12:09:42.614Z,53.30
2017-04-15T12:10:41.528Z,53.90
2017-04-15T12:11:40.450Z,54.70
2017-04-15T12:12:39.354Z,56.40
2017-04-15T12:13:38.256Z,56.60
2017-04-15T12:14:37.135Z,57.00
2017-04-15T12:15:36.020Z,59.20
2017-04-15T12:16:34.929Z,60.10
2017-04-15T12:17:33.812Z,62.40
2017-04-15T12:18:32.720Z,64.20
2017-04-15T12:19:31.875Z,65.00
2017-04-15T12:20:30.772Z,65.80
2017-04-15T12:21:29.653Z,67.00
2017-04-15T12:22:28.587Z,66.80
2017-04-15T12:23:27.488Z,67.20
2017-04-15T12:24:26.372Z,67.90
2017-04-15T12:25:25.290Z,68.10
2017-04-15T12:26:24.187Z,68.90
2017-04-15T12:27:23.074Z,68.80
2017-04-15T12:28:22.011Z,68.90
2017-04-15T12:29:20.901Z,69.20
2017-04-15T12:30:19.838Z,69.60
2017-04-15T12:31:18.824Z,68.70
2017-04-15T12:32:17.707Z,69.10
2017-04-15T12:33:16.615Z,68.80
2017-04-15T12:34:15.507Z,70.20
2017-04-15T12:35:14.398Z,69.10
2017-04-15T12:36:13.284Z,69.90
2017-04-15T12:37:12.239Z,70.30
2017-04-15T12:38:11.107Z,70.90
2017-04-15T12:39:09.990Z,70.60
2017-04-15T12:40:08.914Z,70.80